sensor_id;sensor_type;location;lat;lon;timestamp;temperature;humidity
53268;DHT22;39156;51.176;6.738;2023-06-19T00:02:09;23.60;49.50
53268;DHT22;39156;51.176;6.738;2023-06-19T00:04:34;23.50;49.60
53268;DHT22;39156;51.176;6.738;2023-06-19T00:07:00;23.50;49.60
53268;DHT22;39156;51.176;6.738;2023-06-19T00:09:26;23.50;49.80
53268;DHT22;39156;51.176;6.738;2023-06-19T00:11:52;23.40;49.90
53268;DHT22;39156;51.176;6.738;2023-06-19T00:14:18;23.40;50.10
53268;DHT22;39156;51.176;6.738;2023-06-19T00:16:44;23.40;50.20
53268;DHT22;39156;51.176;6.738;2023-06-19T00:19:10;23.30;50.20
53268;DHT22;39156;51.176;6.738;2023-06-19T00:21:37;23.30;50.40
53268;DHT22;39156;51.176;6.738;2023-06-19T00:24:03;23.20;50.30
53268;DHT22;39156;51.176;6.738;2023-06-19T00:26:29;23.20;49.60
53268;DHT22;39156;51.176;6.738;2023-06-19T00:28:56;23.20;50.30
53268;DHT22;39156;51.176;6.738;2023-06-19T00:31:22;23.20;50.50
53268;DHT22;39156;51.176;6.738;2023-06-19T00:33:47;23.10;49.50
53268;DHT22;39156;51.176;6.738;2023-06-19T00:36:14;23.10;50.40
53268;DHT22;39156;51.176;6.738;2023-06-19T00:38:42;23.00;50.80
53268;DHT22;39156;51.176;6.738;2023-06-19T00:41:08;23.00;51.00
53268;DHT22;39156;51.176;6.738;2023-06-19T00:43:34;23.00;51.20
53268;DHT22;39156;51.176;6.738;2023-06-19T00:46:01;22.90;51.40
53268;DHT22;39156;51.176;6.738;2023-06-19T00:48:27;22.90;51.50
53268;DHT22;39156;51.176;6.738;2023-06-19T00:50:55;22.80;51.70
53268;DHT22;39156;51.176;6.738;2023-06-19T00:53:22;22.80;51.80
53268;DHT22;39156;51.176;6.738;2023-06-19T00:55:49;22.70;51.90
53268;DHT22;39156;51.176;6.738;2023-06-19T00:58:17;22.80;52.20
53268;DHT22;39156;51.176;6.738;2023-06-19T01:00:43;22.80;52.40
53268;DHT22;39156;51.176;6.738;2023-06-19T01:03:09;22.70;52.40
53268;DHT22;39156;51.176;6.738;2023-06-19T01:05:35;22.70;52.50
53268;DHT22;39156;51.176;6.738;2023-06-19T01:08:08;22.70;52.60
53268;DHT22;39156;51.176;6.738;2023-06-19T01:10:41;22.60;52.90
53268;DHT22;39156;51.176;6.738;2023-06-19T01:13:31;22.60;52.80
53268;DHT22;39156;51.176;6.738;2023-06-19T01:16:04;22.60;53.00
53268;DHT22;39156;51.176;6.738;2023-06-19T01:18:32;22.60;52.80
53268;DHT22;39156;51.176;6.738;2023-06-19T01:21:17;22.60;53.10
53268;DHT22;39156;51.176;6.738;2023-06-19T01:23:44;22.60;53.30
53268;DHT22;39156;51.176;6.738;2023-06-19T01:26:10;22.50;52.90
53268;DHT22;39156;51.176;6.738;2023-06-19T01:28:38;22.60;52.20
53268;DHT22;39156;51.176;6.738;2023-06-19T01:31:20;22.50;52.80
53268;DHT22;39156;51.176;6.738;2023-06-19T01:33:52;22.50;53.30
53268;DHT22;39156;51.176;6.738;2023-06-19T01:36:20;22.40;52.90
53268;DHT22;39156;51.176;6.738;2023-06-19T01:38:48;22.40;52.90
53268;DHT22;39156;51.176;6.738;2023-06-19T01:41:15;22.40;53.20
53268;DHT22;39156;51.176;6.738;2023-06-19T01:43:42;22.30;53.30
53268;DHT22;39156;51.176;6.738;2023-06-19T01:46:08;22.30;53.40
53268;DHT22;39156;51.176;6.738;2023-06-19T01:48:35;22.20;53.30
53268;DHT22;39156;51.176;6.738;2023-06-19T01:51:01;22.20;53.50
53268;DHT22;39156;51.176;6.738;2023-06-19T01:53:30;22.20;53.60
53268;DHT22;39156;51.176;6.738;2023-06-19T01:55:58;22.20;53.70
53268;DHT22;39156;51.176;6.738;2023-06-19T01:58:24;22.20;53.90
53268;DHT22;39156;51.176;6.738;2023-06-19T02:00:49;22.10;53.90
53268;DHT22;39156;51.176;6.738;2023-06-19T02:03:15;22.10;53.90
53268;DHT22;39156;51.176;6.738;2023-06-19T02:05:41;22.10;54.10
53268;DHT22;39156;51.176;6.738;2023-06-19T02:08:07;22.10;54.00
53268;DHT22;39156;51.176;6.738;2023-06-19T02:10:33;22.20;54.20
53268;DHT22;39156;51.176;6.738;2023-06-19T02:12:59;22.20;54.20
53268;DHT22;39156;51.176;6.738;2023-06-19T02:15:25;22.20;54.30
53268;DHT22;39156;51.176;6.738;2023-06-19T02:17:50;22.20;54.30
53268;DHT22;39156;51.176;6.738;2023-06-19T02:20:20;22.30;54.50
53268;DHT22;39156;51.176;6.738;2023-06-19T02:22:46;22.30;54.50
53268;DHT22;39156;51.176;6.738;2023-06-19T02:25:12;22.30;53.80
53268;DHT22;39156;51.176;6.738;2023-06-19T02:27:38;22.30;54.40
53268;DHT22;39156;51.176;6.738;2023-06-19T02:30:04;22.30;54.50
53268;DHT22;39156;51.176;6.738;2023-06-19T02:32:30;22.30;54.70
53268;DHT22;39156;51.176;6.738;2023-06-19T02:34:58;22.30;54.70
53268;DHT22;39156;51.176;6.738;2023-06-19T02:37:24;22.30;54.80
53268;DHT22;39156;51.176;6.738;2023-06-19T02:39:49;22.30;54.50
53268;DHT22;39156;51.176;6.738;2023-06-19T02:42:15;22.20;54.10
53268;DHT22;39156;51.176;6.738;2023-06-19T02:44:40;22.20;54.00
53268;DHT22;39156;51.176;6.738;2023-06-19T02:47:07;22.20;53.70
53268;DHT22;39156;51.176;6.738;2023-06-19T02:49:33;22.20;53.70
53268;DHT22;39156;51.176;6.738;2023-06-19T02:51:59;22.20;53.60
53268;DHT22;39156;51.176;6.738;2023-06-19T02:54:24;22.20;53.50
53268;DHT22;39156;51.176;6.738;2023-06-19T02:56:50;22.20;53.50
53268;DHT22;39156;51.176;6.738;2023-06-19T02:59:16;22.20;53.50
53268;DHT22;39156;51.176;6.738;2023-06-19T03:01:42;22.20;53.60
53268;DHT22;39156;51.176;6.738;2023-06-19T03:04:07;22.10;53.60
53268;DHT22;39156;51.176;6.738;2023-06-19T03:06:33;22.10;53.70
53268;DHT22;39156;51.176;6.738;2023-06-19T03:09:04;22.10;53.90
53268;DHT22;39156;51.176;6.738;2023-06-19T03:11:31;22.00;54.00
53268;DHT22;39156;51.176;6.738;2023-06-19T03:13:56;22.00;54.00
53268;DHT22;39156;51.176;6.738;2023-06-19T03:16:22;22.00;54.30
53268;DHT22;39156;51.176;6.738;2023-06-19T03:18:48;21.90;54.20
53268;DHT22;39156;51.176;6.738;2023-06-19T03:21:14;21.90;54.20
53268;DHT22;39156;51.176;6.738;2023-06-19T03:23:40;21.90;54.50
53268;DHT22;39156;51.176;6.738;2023-06-19T03:26:09;21.80;54.60
53268;DHT22;39156;51.176;6.738;2023-06-19T03:28:38;21.80;54.70
53268;DHT22;39156;51.176;6.738;2023-06-19T03:31:04;21.80;54.90
53268;DHT22;39156;51.176;6.738;2023-06-19T03:33:29;21.80;55.00
53268;DHT22;39156;51.176;6.738;2023-06-19T03:35:55;21.80;55.00
53268;DHT22;39156;51.176;6.738;2023-06-19T03:38:21;21.80;55.00
53268;DHT22;39156;51.176;6.738;2023-06-19T03:40:46;21.70;55.10
53268;DHT22;39156;51.176;6.738;2023-06-19T03:43:12;21.70;55.30
53268;DHT22;39156;51.176;6.738;2023-06-19T03:45:38;21.70;55.40
53268;DHT22;39156;51.176;6.738;2023-06-19T03:48:04;21.70;55.60
53268;DHT22;39156;51.176;6.738;2023-06-19T03:50:29;21.70;55.70
53268;DHT22;39156;51.176;6.738;2023-06-19T03:52:55;21.70;55.80
53268;DHT22;39156;51.176;6.738;2023-06-19T03:55:21;21.60;55.90
53268;DHT22;39156;51.176;6.738;2023-06-19T03:57:46;21.60;56.10
53268;DHT22;39156;51.176;6.738;2023-06-19T04:00:14;21.70;56.30
53268;DHT22;39156;51.176;6.738;2023-06-19T04:02:40;21.70;56.50
53268;DHT22;39156;51.176;6.738;2023-06-19T04:05:06;21.60;56.50
53268;DHT22;39156;51.176;6.738;2023-06-19T04:07:32;21.60;56.60
53268;DHT22;39156;51.176;6.738;2023-06-19T04:09:58;21.60;55.70
53268;DHT22;39156;51.176;6.738;2023-06-19T04:12:24;21.60;56.50
53268;DHT22;39156;51.176;6.738;2023-06-19T04:14:50;21.60;56.80
53268;DHT22;39156;51.176;6.738;2023-06-19T04:17:17;21.60;56.90
53268;DHT22;39156;51.176;6.738;2023-06-19T04:19:42;21.60;57.20
53268;DHT22;39156;51.176;6.738;2023-06-19T04:22:08;21.60;57.40
53268;DHT22;39156;51.176;6.738;2023-06-19T04:24:35;21.60;57.00
53268;DHT22;39156;51.176;6.738;2023-06-19T04:27:01;21.60;57.40
53268;DHT22;39156;51.176;6.738;2023-06-19T04:29:26;21.60;57.50
53268;DHT22;39156;51.176;6.738;2023-06-19T04:32:00;21.60;57.70
53268;DHT22;39156;51.176;6.738;2023-06-19T04:34:26;21.60;57.80
53268;DHT22;39156;51.176;6.738;2023-06-19T04:36:52;21.70;57.90
53268;DHT22;39156;51.176;6.738;2023-06-19T04:39:17;21.70;57.90
53268;DHT22;39156;51.176;6.738;2023-06-19T04:41:44;21.70;58.00
53268;DHT22;39156;51.176;6.738;2023-06-19T04:44:10;21.70;58.10
53268;DHT22;39156;51.176;6.738;2023-06-19T04:46:39;21.80;58.00
53268;DHT22;39156;51.176;6.738;2023-06-19T04:49:06;21.80;57.90
53268;DHT22;39156;51.176;6.738;2023-06-19T04:51:32;21.90;57.90
53268;DHT22;39156;51.176;6.738;2023-06-19T04:53:59;21.90;57.80
53268;DHT22;39156;51.176;6.738;2023-06-19T04:56:25;21.90;57.90
53268;DHT22;39156;51.176;6.738;2023-06-19T04:58:51;21.90;57.90
53268;DHT22;39156;51.176;6.738;2023-06-19T05:01:16;22.00;58.00
53268;DHT22;39156;51.176;6.738;2023-06-19T05:03:45;22.00;58.00
53268;DHT22;39156;51.176;6.738;2023-06-19T05:06:14;22.00;58.10
53268;DHT22;39156;51.176;6.738;2023-06-19T05:08:40;22.10;58.00
53268;DHT22;39156;51.176;6.738;2023-06-19T05:11:06;22.10;57.90
53268;DHT22;39156;51.176;6.738;2023-06-19T05:13:31;22.10;57.90
53268;DHT22;39156;51.176;6.738;2023-06-19T05:15:57;22.10;58.00
53268;DHT22;39156;51.176;6.738;2023-06-19T05:18:23;22.10;58.00
53268;DHT22;39156;51.176;6.738;2023-06-19T05:20:48;22.20;57.90
53268;DHT22;39156;51.176;6.738;2023-06-19T05:23:14;22.20;58.00
53268;DHT22;39156;51.176;6.738;2023-06-19T05:25:40;22.20;58.10
53268;DHT22;39156;51.176;6.738;2023-06-19T05:28:05;22.30;58.10
53268;DHT22;39156;51.176;6.738;2023-06-19T05:30:31;22.40;58.10
53268;DHT22;39156;51.176;6.738;2023-06-19T05:32:57;22.50;57.90
53268;DHT22;39156;51.176;6.738;2023-06-19T05:35:22;22.60;57.70
53268;DHT22;39156;51.176;6.738;2023-06-19T05:37:48;22.60;57.50
53268;DHT22;39156;51.176;6.738;2023-06-19T05:40:14;22.70;57.40
53268;DHT22;39156;51.176;6.738;2023-06-19T05:42:40;22.70;57.40
53268;DHT22;39156;51.176;6.738;2023-06-19T05:45:06;22.70;57.30
53268;DHT22;39156;51.176;6.738;2023-06-19T05:47:32;22.80;57.30
53268;DHT22;39156;51.176;6.738;2023-06-19T05:49:58;22.80;56.80
53268;DHT22;39156;51.176;6.738;2023-06-19T05:52:24;22.80;56.90
53268;DHT22;39156;51.176;6.738;2023-06-19T05:54:50;22.80;56.90
53268;DHT22;39156;51.176;6.738;2023-06-19T05:57:18;22.80;57.10
53268;DHT22;39156;51.176;6.738;2023-06-19T05:59:47;22.80;57.10
53268;DHT22;39156;51.176;6.738;2023-06-19T06:02:13;22.80;57.10
53268;DHT22;39156;51.176;6.738;2023-06-19T06:04:39;22.90;57.10
53268;DHT22;39156;51.176;6.738;2023-06-19T06:07:05;23.00;57.20
53268;DHT22;39156;51.176;6.738;2023-06-19T06:09:31;23.10;57.30
53268;DHT22;39156;51.176;6.738;2023-06-19T06:11:59;23.20;57.20
53268;DHT22;39156;51.176;6.738;2023-06-19T06:14:26;23.20;57.00
53268;DHT22;39156;51.176;6.738;2023-06-19T06:16:52;23.40;56.90
53268;DHT22;39156;51.176;6.738;2023-06-19T06:19:19;23.50;56.50
53268;DHT22;39156;51.176;6.738;2023-06-19T06:21:46;23.60;56.40
53268;DHT22;39156;51.176;6.738;2023-06-19T06:24:11;23.70;56.10
53268;DHT22;39156;51.176;6.738;2023-06-19T06:26:37;23.80;55.90
53268;DHT22;39156;51.176;6.738;2023-06-19T06:29:03;23.80;55.80
53268;DHT22;39156;51.176;6.738;2023-06-19T06:31:28;23.90;55.50
53268;DHT22;39156;51.176;6.738;2023-06-19T06:33:54;23.90;55.40
53268;DHT22;39156;51.176;6.738;2023-06-19T06:36:20;23.90;55.30
53268;DHT22;39156;51.176;6.738;2023-06-19T06:38:45;24.00;55.30
53268;DHT22;39156;51.176;6.738;2023-06-19T06:41:11;24.00;55.20
53268;DHT22;39156;51.176;6.738;2023-06-19T06:43:37;23.90;55.00
53268;DHT22;39156;51.176;6.738;2023-06-19T06:46:04;24.00;54.70
53268;DHT22;39156;51.176;6.738;2023-06-19T06:48:29;23.90;54.70
53268;DHT22;39156;51.176;6.738;2023-06-19T06:50:55;23.90;54.80
53268;DHT22;39156;51.176;6.738;2023-06-19T06:53:27;23.90;55.50
53268;DHT22;39156;51.176;6.738;2023-06-19T06:55:57;23.80;54.90
53268;DHT22;39156;51.176;6.738;2023-06-19T06:58:25;23.80;55.00
53268;DHT22;39156;51.176;6.738;2023-06-19T07:00:51;23.70;54.90
53268;DHT22;39156;51.176;6.738;2023-06-19T07:03:17;23.70;55.00
53268;DHT22;39156;51.176;6.738;2023-06-19T07:05:47;23.70;55.10
53268;DHT22;39156;51.176;6.738;2023-06-19T07:08:13;23.70;55.10
53268;DHT22;39156;51.176;6.738;2023-06-19T07:10:39;23.70;55.30
53268;DHT22;39156;51.176;6.738;2023-06-19T07:13:05;23.80;55.20
53268;DHT22;39156;51.176;6.738;2023-06-19T07:15:30;23.80;55.20
53268;DHT22;39156;51.176;6.738;2023-06-19T07:17:56;23.80;55.10
53268;DHT22;39156;51.176;6.738;2023-06-19T07:20:22;23.80;55.10
53268;DHT22;39156;51.176;6.738;2023-06-19T07:22:51;23.90;55.20
53268;DHT22;39156;51.176;6.738;2023-06-19T07:25:18;23.80;55.10
53268;DHT22;39156;51.176;6.738;2023-06-19T07:27:44;23.80;55.10
53268;DHT22;39156;51.176;6.738;2023-06-19T07:30:10;23.80;55.40
53268;DHT22;39156;51.176;6.738;2023-06-19T07:32:36;23.70;55.70
53268;DHT22;39156;51.176;6.738;2023-06-19T07:35:03;23.60;56.00
53268;DHT22;39156;51.176;6.738;2023-06-19T07:37:29;23.60;55.40
53268;DHT22;39156;51.176;6.738;2023-06-19T07:39:55;23.60;56.50
53268;DHT22;39156;51.176;6.738;2023-06-19T07:42:21;23.50;56.70
53268;DHT22;39156;51.176;6.738;2023-06-19T07:44:47;23.40;56.90
53268;DHT22;39156;51.176;6.738;2023-06-19T07:47:15;23.50;57.20
53268;DHT22;39156;51.176;6.738;2023-06-19T07:49:41;23.50;57.50
53268;DHT22;39156;51.176;6.738;2023-06-19T07:52:07;23.50;57.60
53268;DHT22;39156;51.176;6.738;2023-06-19T07:54:36;23.50;57.60
53268;DHT22;39156;51.176;6.738;2023-06-19T07:57:02;23.60;57.60
53268;DHT22;39156;51.176;6.738;2023-06-19T07:59:28;23.70;57.20
53268;DHT22;39156;51.176;6.738;2023-06-19T08:01:53;23.80;57.10
53268;DHT22;39156;51.176;6.738;2023-06-19T08:04:19;23.90;57.00
53268;DHT22;39156;51.176;6.738;2023-06-19T08:06:45;24.00;57.00
53268;DHT22;39156;51.176;6.738;2023-06-19T08:09:11;24.20;57.10
53268;DHT22;39156;51.176;6.738;2023-06-19T08:11:36;24.30;57.20
53268;DHT22;39156;51.176;6.738;2023-06-19T08:14:02;24.60;57.50
53268;DHT22;39156;51.176;6.738;2023-06-19T08:16:28;25.10;57.40
53268;DHT22;39156;51.176;6.738;2023-06-19T08:18:54;25.50;57.20
53268;DHT22;39156;51.176;6.738;2023-06-19T08:21:19;26.00;57.40
53268;DHT22;39156;51.176;6.738;2023-06-19T08:23:47;26.50;55.90
53268;DHT22;39156;51.176;6.738;2023-06-19T08:26:14;26.90;54.10
53268;DHT22;39156;51.176;6.738;2023-06-19T08:28:39;27.40;53.60
53268;DHT22;39156;51.176;6.738;2023-06-19T08:31:06;27.80;52.60
53268;DHT22;39156;51.176;6.738;2023-06-19T08:33:34;28.10;51.50
53268;DHT22;39156;51.176;6.738;2023-06-19T08:36:00;28.50;50.40
53268;DHT22;39156;51.176;6.738;2023-06-19T08:38:26;28.70;49.90
53268;DHT22;39156;51.176;6.738;2023-06-19T08:40:52;29.00;49.60
53268;DHT22;39156;51.176;6.738;2023-06-19T08:43:17;29.30;49.00
53268;DHT22;39156;51.176;6.738;2023-06-19T08:45:43;29.70;49.10
53268;DHT22;39156;51.176;6.738;2023-06-19T08:48:13;30.00;48.60
53268;DHT22;39156;51.176;6.738;2023-06-19T08:50:39;30.40;46.70
53268;DHT22;39156;51.176;6.738;2023-06-19T08:53:05;30.70;46.60
53268;DHT22;39156;51.176;6.738;2023-06-19T08:55:30;30.90;46.10
53268;DHT22;39156;51.176;6.738;2023-06-19T08:57:56;31.10;45.40
53268;DHT22;39156;51.176;6.738;2023-06-19T09:00:25;31.20;44.90
53268;DHT22;39156;51.176;6.738;2023-06-19T09:02:59;31.10;44.30
53268;DHT22;39156;51.176;6.738;2023-06-19T09:05:29;31.10;43.60
53268;DHT22;39156;51.176;6.738;2023-06-19T09:07:59;31.00;43.90
53268;DHT22;39156;51.176;6.738;2023-06-19T09:10:28;31.10;43.40
53268;DHT22;39156;51.176;6.738;2023-06-19T09:13:02;31.10;44.10
53268;DHT22;39156;51.176;6.738;2023-06-19T09:15:31;31.10;43.70
53268;DHT22;39156;51.176;6.738;2023-06-19T09:18:10;31.40;44.20
53268;DHT22;39156;51.176;6.738;2023-06-19T09:20:41;31.70;44.10
53268;DHT22;39156;51.176;6.738;2023-06-19T09:23:10;32.00;43.80
53268;DHT22;39156;51.176;6.738;2023-06-19T09:25:50;32.40;43.20
53268;DHT22;39156;51.176;6.738;2023-06-19T09:28:23;32.50;42.40
53268;DHT22;39156;51.176;6.738;2023-06-19T09:30:58;32.70;42.00
53268;DHT22;39156;51.176;6.738;2023-06-19T09:33:33;32.90;41.60
53268;DHT22;39156;51.176;6.738;2023-06-19T09:36:01;33.10;41.20
53268;DHT22;39156;51.176;6.738;2023-06-19T09:38:38;33.30;41.30
53268;DHT22;39156;51.176;6.738;2023-06-19T09:41:06;33.40;40.50
53268;DHT22;39156;51.176;6.738;2023-06-19T09:43:40;33.50;40.60
53268;DHT22;39156;51.176;6.738;2023-06-19T09:46:07;33.40;39.80
53268;DHT22;39156;51.176;6.738;2023-06-19T09:48:34;33.50;41.20
53268;DHT22;39156;51.176;6.738;2023-06-19T09:53:47;33.50;39.80
53268;DHT22;39156;51.176;6.738;2023-06-19T09:56:15;33.50;39.60
53268;DHT22;39156;51.176;6.738;2023-06-19T09:58:42;33.40;39.10
53268;DHT22;39156;51.176;6.738;2023-06-19T10:01:09;33.20;38.70
53268;DHT22;39156;51.176;6.738;2023-06-19T10:03:36;33.00;39.00
53268;DHT22;39156;51.176;6.738;2023-06-19T10:06:03;32.90;39.00
53268;DHT22;39156;51.176;6.738;2023-06-19T10:08:31;32.90;39.00
53268;DHT22;39156;51.176;6.738;2023-06-19T10:11:07;32.80;39.00
53268;DHT22;39156;51.176;6.738;2023-06-19T10:13:36;32.70;38.90
53268;DHT22;39156;51.176;6.738;2023-06-19T10:16:07;32.50;38.90
53268;DHT22;39156;51.176;6.738;2023-06-19T10:18:45;32.40;39.00
53268;DHT22;39156;51.176;6.738;2023-06-19T10:21:18;32.20;39.10
53268;DHT22;39156;51.176;6.738;2023-06-19T10:23:53;32.00;38.90
53268;DHT22;39156;51.176;6.738;2023-06-19T10:26:35;31.80;39.30
53268;DHT22;39156;51.176;6.738;2023-06-19T10:29:01;31.60;39.30
53268;DHT22;39156;51.176;6.738;2023-06-19T10:31:29;31.30;39.10
53268;DHT22;39156;51.176;6.738;2023-06-19T10:33:55;31.10;39.00
53268;DHT22;39156;51.176;6.738;2023-06-19T10:36:23;31.00;39.70
53268;DHT22;39156;51.176;6.738;2023-06-19T10:38:51;30.80;39.40
53268;DHT22;39156;51.176;6.738;2023-06-19T10:41:18;30.70;39.50
53268;DHT22;39156;51.176;6.738;2023-06-19T10:44:01;30.50;39.90
53268;DHT22;39156;51.176;6.738;2023-06-19T10:46:34;30.40;40.30
53268;DHT22;39156;51.176;6.738;2023-06-19T10:49:05;30.30;40.50
53268;DHT22;39156;51.176;6.738;2023-06-19T10:51:36;30.30;39.70
53268;DHT22;39156;51.176;6.738;2023-06-19T10:54:03;30.10;39.90
53268;DHT22;39156;51.176;6.738;2023-06-19T10:56:29;30.00;39.50
53268;DHT22;39156;51.176;6.738;2023-06-19T10:59:09;30.00;39.70
53268;DHT22;39156;51.176;6.738;2023-06-19T11:01:47;29.90;40.10
53268;DHT22;39156;51.176;6.738;2023-06-19T11:04:15;29.80;40.60
53268;DHT22;39156;51.176;6.738;2023-06-19T11:06:43;29.80;40.40
53268;DHT22;39156;51.176;6.738;2023-06-19T11:09:10;29.90;40.50
53268;DHT22;39156;51.176;6.738;2023-06-19T11:11:47;29.90;39.80
53268;DHT22;39156;51.176;6.738;2023-06-19T11:14:14;29.90;40.10
53268;DHT22;39156;51.176;6.738;2023-06-19T11:16:42;30.00;40.60
53268;DHT22;39156;51.176;6.738;2023-06-19T11:19:19;30.00;40.10
53268;DHT22;39156;51.176;6.738;2023-06-19T11:21:50;30.10;40.30
53268;DHT22;39156;51.176;6.738;2023-06-19T11:24:18;30.10;40.20
53268;DHT22;39156;51.176;6.738;2023-06-19T11:26:46;30.10;39.90
53268;DHT22;39156;51.176;6.738;2023-06-19T11:29:23;30.10;39.80
53268;DHT22;39156;51.176;6.738;2023-06-19T11:31:51;30.20;39.50
53268;DHT22;39156;51.176;6.738;2023-06-19T11:34:19;30.20;39.40
53268;DHT22;39156;51.176;6.738;2023-06-19T11:36:45;30.20;39.10
53268;DHT22;39156;51.176;6.738;2023-06-19T11:39:11;30.30;39.30
53268;DHT22;39156;51.176;6.738;2023-06-19T11:41:38;30.30;40.00
53268;DHT22;39156;51.176;6.738;2023-06-19T11:44:06;30.30;39.70
53268;DHT22;39156;51.176;6.738;2023-06-19T11:46:34;30.30;39.20
53268;DHT22;39156;51.176;6.738;2023-06-19T11:51:37;30.30;39.00
53268;DHT22;39156;51.176;6.738;2023-06-19T11:54:09;30.30;39.30
53268;DHT22;39156;51.176;6.738;2023-06-19T11:56:37;30.30;39.20
53268;DHT22;39156;51.176;6.738;2023-06-19T11:59:03;30.40;39.00
53268;DHT22;39156;51.176;6.738;2023-06-19T12:01:33;30.40;39.00
53268;DHT22;39156;51.176;6.738;2023-06-19T12:04:00;30.40;38.90
53268;DHT22;39156;51.176;6.738;2023-06-19T12:06:27;30.40;38.40
53268;DHT22;39156;51.176;6.738;2023-06-19T12:08:53;30.30;38.60
53268;DHT22;39156;51.176;6.738;2023-06-19T12:11:18;30.40;38.70
53268;DHT22;39156;51.176;6.738;2023-06-19T12:13:44;30.30;39.20
53268;DHT22;39156;51.176;6.738;2023-06-19T12:16:10;30.30;38.80
53268;DHT22;39156;51.176;6.738;2023-06-19T12:18:36;30.30;39.40
53268;DHT22;39156;51.176;6.738;2023-06-19T12:21:03;30.30;39.10
53268;DHT22;39156;51.176;6.738;2023-06-19T12:23:29;30.30;39.50
53268;DHT22;39156;51.176;6.738;2023-06-19T12:25:54;30.30;39.20
53268;DHT22;39156;51.176;6.738;2023-06-19T12:28:20;30.30;40.30
53268;DHT22;39156;51.176;6.738;2023-06-19T12:30:46;30.40;39.20
53268;DHT22;39156;51.176;6.738;2023-06-19T12:33:14;30.40;39.60
53268;DHT22;39156;51.176;6.738;2023-06-19T12:35:40;30.50;39.00
53268;DHT22;39156;51.176;6.738;2023-06-19T12:38:07;30.50;39.70
53268;DHT22;39156;51.176;6.738;2023-06-19T12:40:33;30.50;39.20
53268;DHT22;39156;51.176;6.738;2023-06-19T12:42:59;30.50;38.80
53268;DHT22;39156;51.176;6.738;2023-06-19T12:45:24;30.60;39.30
53268;DHT22;39156;51.176;6.738;2023-06-19T12:47:51;30.60;38.60
53268;DHT22;39156;51.176;6.738;2023-06-19T12:50:17;30.50;38.60
53268;DHT22;39156;51.176;6.738;2023-06-19T12:52:42;30.60;39.10
53268;DHT22;39156;51.176;6.738;2023-06-19T12:55:08;30.60;39.50
53268;DHT22;39156;51.176;6.738;2023-06-19T12:57:34;30.70;39.20
53268;DHT22;39156;51.176;6.738;2023-06-19T12:59:59;30.70;38.90
53268;DHT22;39156;51.176;6.738;2023-06-19T13:02:25;30.80;38.60
53268;DHT22;39156;51.176;6.738;2023-06-19T13:04:52;30.90;38.70
53268;DHT22;39156;51.176;6.738;2023-06-19T13:07:18;30.90;38.20
53268;DHT22;39156;51.176;6.738;2023-06-19T13:09:43;31.00;38.20
53268;DHT22;39156;51.176;6.738;2023-06-19T13:12:09;31.10;38.30
53268;DHT22;39156;51.176;6.738;2023-06-19T13:14:35;31.10;37.80
53268;DHT22;39156;51.176;6.738;2023-06-19T13:17:01;31.20;38.00
53268;DHT22;39156;51.176;6.738;2023-06-19T13:19:26;31.20;37.70
53268;DHT22;39156;51.176;6.738;2023-06-19T13:21:52;31.20;37.70
53268;DHT22;39156;51.176;6.738;2023-06-19T13:24:18;31.20;37.70
53268;DHT22;39156;51.176;6.738;2023-06-19T13:26:44;31.30;37.60
53268;DHT22;39156;51.176;6.738;2023-06-19T13:29:11;31.20;37.40
53268;DHT22;39156;51.176;6.738;2023-06-19T13:31:37;31.10;37.70
53268;DHT22;39156;51.176;6.738;2023-06-19T13:34:03;31.20;37.90
53268;DHT22;39156;51.176;6.738;2023-06-19T13:36:29;31.10;37.80
53268;DHT22;39156;51.176;6.738;2023-06-19T13:38:55;31.00;37.80
53268;DHT22;39156;51.176;6.738;2023-06-19T13:41:21;31.00;38.10
53268;DHT22;39156;51.176;6.738;2023-06-19T13:43:50;31.00;38.40
53268;DHT22;39156;51.176;6.738;2023-06-19T13:46:19;31.00;38.30
53268;DHT22;39156;51.176;6.738;2023-06-19T13:48:47;30.90;37.90
53268;DHT22;39156;51.176;6.738;2023-06-19T13:51:16;30.90;37.80
53268;DHT22;39156;51.176;6.738;2023-06-19T13:53:43;30.90;38.20
53268;DHT22;39156;51.176;6.738;2023-06-19T13:56:10;30.90;37.90
53268;DHT22;39156;51.176;6.738;2023-06-19T13:58:36;30.90;37.90
53268;DHT22;39156;51.176;6.738;2023-06-19T14:01:01;30.90;37.90
53268;DHT22;39156;51.176;6.738;2023-06-19T14:03:27;30.90;38.30
53268;DHT22;39156;51.176;6.738;2023-06-19T14:05:52;30.90;37.70
53268;DHT22;39156;51.176;6.738;2023-06-19T14:08:18;30.90;38.20
53268;DHT22;39156;51.176;6.738;2023-06-19T14:10:44;30.90;38.10
53268;DHT22;39156;51.176;6.738;2023-06-19T14:13:09;30.90;38.50
53268;DHT22;39156;51.176;6.738;2023-06-19T14:15:35;30.80;38.20
53268;DHT22;39156;51.176;6.738;2023-06-19T14:18:01;30.80;37.90
53268;DHT22;39156;51.176;6.738;2023-06-19T14:20:27;30.70;38.30
53268;DHT22;39156;51.176;6.738;2023-06-19T14:22:52;30.60;38.10
53268;DHT22;39156;51.176;6.738;2023-06-19T14:25:18;30.60;38.40
53268;DHT22;39156;51.176;6.738;2023-06-19T14:27:44;30.50;38.00
53268;DHT22;39156;51.176;6.738;2023-06-19T14:30:10;30.50;38.30
53268;DHT22;39156;51.176;6.738;2023-06-19T14:32:36;30.50;37.80
53268;DHT22;39156;51.176;6.738;2023-06-19T14:35:03;30.40;37.80
53268;DHT22;39156;51.176;6.738;2023-06-19T14:37:29;30.40;37.40
53268;DHT22;39156;51.176;6.738;2023-06-19T14:39:55;30.40;37.40
53268;DHT22;39156;51.176;6.738;2023-06-19T14:42:21;30.40;37.70
53268;DHT22;39156;51.176;6.738;2023-06-19T14:44:46;30.40;37.40
53268;DHT22;39156;51.176;6.738;2023-06-19T14:47:12;30.40;37.80
53268;DHT22;39156;51.176;6.738;2023-06-19T14:49:38;30.40;37.70
53268;DHT22;39156;51.176;6.738;2023-06-19T14:52:04;30.40;38.00
53268;DHT22;39156;51.176;6.738;2023-06-19T14:54:30;30.40;37.70
53268;DHT22;39156;51.176;6.738;2023-06-19T14:56:56;30.40;37.80
53268;DHT22;39156;51.176;6.738;2023-06-19T14:59:22;30.40;38.10
53268;DHT22;39156;51.176;6.738;2023-06-19T15:01:47;30.40;37.60
53268;DHT22;39156;51.176;6.738;2023-06-19T15:04:13;30.40;38.10
53268;DHT22;39156;51.176;6.738;2023-06-19T15:06:39;30.40;37.70
53268;DHT22;39156;51.176;6.738;2023-06-19T15:09:04;30.30;37.90
53268;DHT22;39156;51.176;6.738;2023-06-19T15:11:30;30.30;37.40
53268;DHT22;39156;51.176;6.738;2023-06-19T15:13:56;30.30;38.00
53268;DHT22;39156;51.176;6.738;2023-06-19T15:16:21;30.30;37.40
53268;DHT22;39156;51.176;6.738;2023-06-19T15:18:48;30.30;37.90
53268;DHT22;39156;51.176;6.738;2023-06-19T15:21:14;30.20;37.70
53268;DHT22;39156;51.176;6.738;2023-06-19T15:23:39;30.20;37.50
53268;DHT22;39156;51.176;6.738;2023-06-19T15:26:05;30.20;38.00
53268;DHT22;39156;51.176;6.738;2023-06-19T15:28:34;30.20;37.60
53268;DHT22;39156;51.176;6.738;2023-06-19T15:31:01;30.10;37.60
53268;DHT22;39156;51.176;6.738;2023-06-19T15:33:27;30.10;37.90
53268;DHT22;39156;51.176;6.738;2023-06-19T15:35:53;30.10;37.70